Time;durP1;ratioP1;P1;durP2;ratioP2;P2;SDS_P1;SDS_P2;PMS_P1;PMS_P2;Temp;Humidity;BMP_temperature;BMP_pressure;BME280_temperature;BME280_humidity;BME280_pressure;Samples;Min_cycle;Max_cycle;Signal;HPM_P1;HPM_P2
2021/01/14 00:00:12;;;;;;;43.58;20.33;;;;;;;3.20;89.84;100331.91;4998367;28;20054;-77
2021/01/14 00:02:39;;;;;;;47.20;20.25;;;;;;;3.19;90.64;100324.03;4981475;28;20436;-75
2021/01/14 00:05:12;;;;;;;38.50;20.52;;;;;;;3.10;91.51;100326.03;4978989;28;20381;-76
2021/01/14 00:07:39;;;;;;;45.58;21.08;;;;;;;3.05;92.16;100335.84;4978763;28;20062;-76
2021/01/14 00:10:09;;;;;;;48.30;21.38;;;;;;;2.99;93.09;100333.34;5009822;28;20496;-76
2021/01/14 00:12:35;;;;;;;43.15;21.50;;;;;;;2.88;93.35;100323.09;4978489;28;20053;-77
2021/01/14 00:15:05;;;;;;;44.72;21.73;;;;;;;2.90;93.84;100317.78;4978480;28;20055;-77
2021/01/14 00:17:32;;;;;;;41.38;20.98;;;;;;;2.98;93.26;100318.44;4977280;28;20505;-76
2021/01/14 00:19:58;;;;;;;39.85;20.73;;;;;;;2.93;93.52;100323.84;4978388;28;20059;-76
2021/01/14 00:22:26;;;;;;;42.90;21.23;;;;;;;2.86;94.03;100348.66;4978229;28;20051;-78
2021/01/14 00:24:52;;;;;;;43.88;21.02;;;;;;;2.78;94.25;100333.03;4978002;28;20062;-76
2021/01/14 00:27:18;;;;;;;36.17;20.30;;;;;;;2.79;94.28;100324.19;4978335;28;20377;-76
2021/01/14 00:29:44;;;;;;;39.50;20.92;;;;;;;2.75;94.88;100335.75;4978068;28;20058;-77
2021/01/14 00:32:10;;;;;;;42.10;20.33;;;;;;;2.69;95.60;100325.38;4978178;28;20059;-77
2021/01/14 00:34:38;;;;;;;37.60;21.05;;;;;;;2.66;95.55;100336.00;4978202;28;20047;-76
2021/01/14 00:39:53;;;;;;;41.95;20.10;;;;;;;2.69;96.49;100346.44;4978067;28;20050;-77
2021/01/14 00:42:20;;;;;;;41.10;20.85;;;;;;;2.68;96.27;100344.72;5009098;28;20050;-77
2021/01/14 00:44:46;;;;;;;40.88;21.38;;;;;;;2.59;96.75;100332.63;4978033;28;20379;-76
2021/01/14 00:47:12;;;;;;;43.10;20.42;;;;;;;2.61;96.92;100325.53;5009272;28;20065;-76
2021/01/14 00:49:39;;;;;;;51.03;21.45;;;;;;;2.67;96.61;100338.56;5008900;28;20109;-77
2021/01/14 00:52:05;;;;;;;37.42;19.83;;;;;;;2.66;96.90;100334.22;4976887;28;20054;-77
2021/01/14 00:54:31;;;;;;;38.53;19.13;;;;;;;2.65;96.88;100350.94;4977783;28;20404;-77
2021/01/14 00:56:57;;;;;;;43.35;20.90;;;;;;;2.64;97.55;100350.97;5009090;28;20441;-77
2021/01/14 00:59:23;;;;;;;33.70;19.73;;;;;;;2.55;97.22;100334.47;4977756;28;20047;-77
2021/01/14 01:01:50;;;;;;;43.17;19.92;;;;;;;2.56;96.96;100338.84;4986358;28;20388;-76
2021/01/14 01:04:16;;;;;;;34.65;17.27;;;;;;;2.61;96.64;100344.00;4996919;28;20050;-77
2021/01/14 01:06:42;;;;;;;35.50;17.60;;;;;;;2.64;97.24;100351.84;4997224;28;20050;-77
2021/01/14 01:09:10;;;;;;;28.90;15.90;;;;;;;2.67;97.39;100364.94;4997241;28;20388;-77
2021/01/14 01:11:38;;;;;;;32.08;16.95;;;;;;;2.66;97.01;100350.03;4997093;28;20441;-77
2021/01/14 01:14:05;;;;;;;31.23;16.10;;;;;;;2.74;96.78;100355.09;5028476;28;20050;-77
2021/01/14 01:16:32;;;;;;;32.35;14.77;;;;;;;2.68;96.79;100356.09;4996633;28;20061;-77
2021/01/14 01:18:58;;;;;;;32.80;16.50;;;;;;;2.60;97.00;100337.00;4996998;28;20054;-76
2021/01/14 01:21:24;;;;;;;36.78;15.02;;;;;;;2.54;97.17;100321.34;5028696;28;20054;-76
2021/01/14 01:23:51;;;;;;;30.85;14.57;;;;;;;2.60;97.00;100341.41;4996510;28;20054;-76
2021/01/14 01:26:19;;;;;;;24.73;14.02;;;;;;;2.57;96.85;100340.56;4996657;28;20057;-77
2021/01/14 01:28:46;;;;;;;29.67;14.20;;;;;;;2.55;96.28;100350.28;5028453;28;20050;-77
2021/01/14 01:31:13;;;;;;;27.60;12.63;;;;;;;2.53;96.49;100352.09;4996902;28;20061;-77
2021/01/14 01:33:41;;;;;;;34.90;12.57;;;;;;;2.48;96.35;100338.16;5028256;28;20058;-77
2021/01/14 01:36:10;;;;;;;26.83;12.40;;;;;;;2.53;96.19;100341.56;5028290;28;20050;-77
2021/01/14 01:38:36;;;;;;;25.67;11.77;;;;;;;2.54;96.28;100338.03;5027202;28;20337;-77
2021/01/14 01:41:03;;;;;;;25.77;12.30;;;;;;;2.58;96.08;100344.94;4996750;28;20050;-77
2021/01/14 01:43:30;;;;;;;23.80;10.88;;;;;;;2.59;96.00;100351.09;5028293;28;20120;-77
2021/01/14 01:45:56;;;;;;;24.67;11.32;;;;;;;2.55;95.88;100338.88;5027909;28;20421;-77
2021/01/14 01:48:23;;;;;;;27.35;11.85;;;;;;;2.52;95.83;100338.97;4996303;28;20058;-78
2021/01/14 01:50:54;;;;;;;22.00;10.57;;;;;;;2.55;95.64;100350.28;4996204;28;20108;-77
2021/01/14 01:53:21;;;;;;;30.25;11.23;;;;;;;2.50;96.20;100344.25;4996392;28;20058;-77
2021/01/14 01:55:47;;;;;;;26.35;11.85;;;;;;;2.51;97.20;100353.91;4996108;28;20054;-77
2021/01/14 01:58:14;;;;;;;32.25;12.82;;;;;;;2.50;96.85;100351.31;4996137;28;20047;-76
2021/01/14 02:00:41;;;;;;;24.30;10.55;;;;;;;2.51;96.38;100359.16;4995941;28;20062;-77
2021/01/14 02:03:07;;;;;;;21.98;9.68;;;;;;;2.56;96.54;100375.72;5008407;28;20062;-76
2021/01/14 02:05:34;;;;;;;23.10;10.48;;;;;;;2.51;97.06;100380.25;4976520;28;20058;-77
2021/01/14 02:08:18;;;;;;;28.63;11.30;;;;;;;2.50;96.49;100378.50;4976877;28;20057;-77
2021/01/14 02:10:54;;;;;;;21.55;8.25;;;;;;;2.42;95.63;100381.34;4976472;28;20046;-77
2021/01/14 02:13:26;;;;;;;29.13;9.73;;;;;;;2.30;96.09;100382.47;4976925;28;20651;-77
2021/01/14 02:15:56;;;;;;;27.40;8.18;;;;;;;2.21;96.37;100385.34;4976741;28;20051;-76
2021/01/14 02:18:23;;;;;;;19.90;6.53;;;;;;;2.17;95.70;100396.81;5008039;28;20051;-77
2021/01/14 02:20:54;;;;;;;15.07;5.60;;;;;;;2.10;93.76;100411.03;4975507;28;20046;-77
2021/01/14 02:23:32;;;;;;;17.48;4.80;;;;;;;1.83;94.09;100408.09;4976619;28;20058;-76
2021/01/14 02:26:04;;;;;;;15.20;5.10;;;;;;;1.69;96.11;100393.44;4976232;28;20098;-76
2021/01/14 02:28:32;;;;;;;15.48;4.53;;;;;;;1.75;95.58;100400.38;4976379;28;20055;-76
2021/01/14 02:30:59;;;;;;;12.95;4.03;;;;;;;1.87;95.55;100410.63;5007759;28;20062;-76
2021/01/14 02:33:26;;;;;;;20.25;5.10;;;;;;;1.85;94.54;100422.09;4976257;28;20059;-76
2021/01/14 02:35:52;;;;;;;16.67;4.18;;;;;;;1.78;93.92;100437.13;4976293;28;20051;-77
2021/01/14 02:38:18;;;;;;;13.30;4.55;;;;;;;1.58;95.43;100440.19;5007515;28;20066;-76
2021/01/14 02:40:44;;;;;;;15.27;4.28;;;;;;;1.49;96.64;100446.47;4976173;28;20125;-77
2021/01/14 02:43:10;;;;;;;15.05;4.05;;;;;;;1.43;95.68;100443.97;5007629;28;20058;-77
2021/01/14 02:45:36;;;;;;;15.00;4.00;;;;;;;1.29;96.16;100454.72;5007641;28;20130;-76
2021/01/14 02:48:05;;;;;;;12.80;3.78;;;;;;;1.10;95.97;100460.31;4976196;28;20063;-77
2021/01/14 02:50:37;;;;;;;15.32;4.32;;;;;;;1.07;96.49;100455.09;4976185;28;20055;-76
2021/01/14 02:53:03;;;;;;;15.23;3.72;;;;;;;0.99;96.81;100451.72;4976196;28;20051;-77
2021/01/14 02:55:30;;;;;;;16.85;4.18;;;;;;;1.00;97.51;100438.56;5007146;28;20051;-77
2021/01/14 02:57:57;;;;;;;14.25;4.15;;;;;;;1.07;97.78;100444.56;4976079;28;20389;-77
2021/01/14 03:00:23;;;;;;;15.82;4.28;;;;;;;1.10;97.20;100459.44;4975878;28;20503;-77
2021/01/14 03:02:49;;;;;;;16.40;3.65;;;;;;;1.09;97.00;100458.56;4992668;28;20354;-77
2021/01/14 03:05:15;;;;;;;13.32;3.60;;;;;;;1.15;97.13;100463.72;4995307;28;20425;-78
2021/01/14 03:07:41;;;;;;;13.25;3.65;;;;;;;1.16;97.36;100464.59;4998639;28;20054;-76
2021/01/14 03:10:08;;;;;;;15.52;3.40;;;;;;;1.09;96.37;100469.06;5030581;28;20058;-76
2021/01/14 03:12:36;;;;;;;22.05;4.30;;;;;;;0.79;97.00;100447.66;4999479;28;20055;-77
2021/01/14 03:15:05;;;;;;;14.13;2.58;;;;;;;0.93;96.91;100473.75;4999260;28;20050;-77
2021/01/14 03:17:36;;;;;;;15.65;3.20;;;;;;;0.86;96.76;100477.34;4999304;28;20058;-77
2021/01/14 03:20:06;;;;;;;16.13;2.97;;;;;;;0.87;97.11;100474.69;4998890;28;20429;-77
2021/01/14 03:22:41;;;;;;;14.57;3.00;;;;;;;0.84;97.35;100464.22;4999017;28;20054;-77
2021/01/14 03:25:10;;;;;;;11.75;3.38;;;;;;;0.95;97.02;100471.94;4998703;28;20054;-77
2021/01/14 03:27:41;;;;;;;14.02;2.17;;;;;;;1.01;97.06;100463.06;4998790;28;20428;-77
2021/01/14 03:30:08;;;;;;;;;;;;;;;1.02;97.35;100472.69;5030966;28;20050;-76
2021/01/14 03:32:35;;;;;;;12.77;2.03;;;;;;;0.98;97.33;100452.63;4998982;28;19925;-76
2021/01/14 03:35:03;;;;;;;6.82;1.88;;;;;;;1.08;96.61;100462.06;4998711;28;20101;-77
2021/01/14 03:37:29;;;;;;;6.90;1.70;;;;;;;1.17;96.19;100477.72;4998577;28;20057;-77
2021/01/14 03:39:55;;;;;;;8.20;1.85;;;;;;;1.25;96.38;100468.81;4998593;28;20046;-77
2021/01/14 03:42:22;;;;;;;16.90;3.13;;;;;;;1.22;95.97;100477.63;4998476;28;20054;-77
2021/01/14 03:44:49;;;;;;;15.10;2.40;;;;;;;1.13;95.62;100462.88;4998525;28;20057;-76
2021/01/14 03:47:16;;;;;;;9.45;2.78;;;;;;;1.09;95.54;100458.56;4997367;28;20520;-77
2021/01/14 03:49:42;;;;;;;13.15;2.20;;;;;;;1.23;96.22;100466.22;4998387;28;20061;-77
2021/01/14 03:52:09;;;;;;;11.07;2.70;;;;;;;1.13;96.42;100462.88;5030235;28;20062;-77
2021/01/14 03:54:36;;;;;;;9.45;2.05;;;;;;;1.22;95.60;100467.13;4998648;28;20138;-77
2021/01/14 03:57:04;;;;;;;7.63;2.00;;;;;;;1.21;95.53;100462.75;4998546;28;20377;-77
2021/01/14 03:59:31;;;;;;;11.52;2.25;;;;;;;1.03;95.25;100438.50;4997331;28;20054;-77
2021/01/14 04:02:06;;;;;;;7.60;2.47;;;;;;;1.07;96.58;100439.31;4998149;28;20058;-77
2021/01/14 04:04:37;;;;;;;13.98;2.65;;;;;;;1.15;96.04;100458.44;4998314;28;20050;-76
2021/01/14 04:07:13;;;;;;;13.73;2.40;;;;;;;1.26;95.94;100458.28;4998533;28;20058;-76
2021/01/14 04:09:41;;;;;;;13.82;2.83;;;;;;;1.22;95.68;100460.06;4998256;28;20069;-76
2021/01/14 04:12:07;;;;;;;9.40;2.40;;;;;;;1.22;94.97;100457.44;4996988;28;20096;-77
2021/01/14 04:14:33;;;;;;;9.88;2.33;;;;;;;1.24;95.15;100457.44;4998338;28;20058;-77
2021/01/14 04:17:00;;;;;;;10.73;2.60;;;;;;;1.22;94.75;100454.81;4997473;28;20085;-76
2021/01/14 04:19:26;;;;;;;21.73;2.65;;;;;;;1.13;94.90;100449.72;4998167;28;20050;-77
2021/01/14 04:21:53;;;;;;;6.07;2.42;;;;;;;1.17;95.25;100456.69;4998317;28;20058;-76
2021/01/14 04:24:19;;;;;;;6.68;2.42;;;;;;;1.15;95.42;100452.34;4997839;28;20068;-76
2021/01/14 04:26:47;;;;;;;18.75;2.95;;;;;;;1.10;95.44;100448.91;4996620;28;20046;-77
2021/01/14 04:29:14;;;;;;;15.85;3.58;;;;;;;1.07;95.92;100455.09;4997799;28;20120;-76
2021/01/14 04:31:40;;;;;;;12.80;3.05;;;;;;;0.98;96.40;100440.34;4998039;28;20058;-76
2021/01/14 04:34:06;;;;;;;19.58;2.75;;;;;;;1.01;96.48;100449.94;4996742;28;20065;-77
2021/01/14 04:36:33;;;;;;;15.38;2.92;;;;;;;1.07;96.14;100455.09;5012955;28;20050;-76
2021/01/14 04:38:59;;;;;;;16.17;3.15;;;;;;;1.06;95.53;100448.09;4996599;28;20050;-76
2021/01/14 04:41:34;;;;;;;14.77;2.42;;;;;;;1.08;95.72;100451.56;4997555;28;20061;-76
2021/01/14 04:44:01;;;;;;;16.92;3.13;;;;;;;1.06;95.95;100450.72;4997574;28;20077;-77
2021/01/14 04:46:31;;;;;;;14.65;3.20;;;;;;;1.05;95.90;100449.00;4997399;28;20057;-76
2021/01/14 04:48:58;;;;;;;14.05;3.13;;;;;;;1.05;96.13;100451.63;4997608;28;20061;-76
2021/01/14 04:51:28;;;;;;;19.60;3.17;;;;;;;1.03;96.12;100448.16;4997401;28;20054;-76
2021/01/14 04:54:01;;;;;;;17.58;3.38;;;;;;;0.81;96.06;100416.97;4996387;28;20054;-76
2021/01/14 04:56:33;;;;;;;19.52;4.15;;;;;;;1.05;96.05;100455.09;4997216;28;20455;-77
2021/01/14 04:59:02;;;;;;;17.95;3.60;;;;;;;1.05;96.13;100455.09;4996277;28;20057;-76
2021/01/14 05:01:33;;;;;;;21.08;3.90;;;;;;;1.11;95.90;100461.16;4997482;28;20061;-77
2021/01/14 05:04:03;;;;;;;12.10;2.72;;;;;;;1.09;95.42;100463.81;5029064;28;20050;-78
2021/01/14 05:06:34;;;;;;;12.40;3.00;;;;;;;1.02;96.28;100462.19;4997539;28;20383;-78
2021/01/14 05:09:06;;;;;;;15.38;2.25;;;;;;;1.10;96.38;100473.47;4996889;28;20054;-78
2021/01/14 05:11:53;;;;;;;17.27;3.17;;;;;;;1.05;96.28;100473.50;4997480;28;20076;-78
2021/01/14 05:14:20;;;;;;;12.57;2.90;;;;;;;1.03;96.32;100477.09;4997153;28;20054;-75
2021/01/14 05:16:50;;;;;;;5.93;2.53;;;;;;;0.85;96.45;100444.94;4996896;28;20054;-76
2021/01/14 05:19:16;;;;;;;11.70;2.97;;;;;;;0.93;96.15;100448.31;5028477;28;20376;-76
2021/01/14 05:21:45;;;;;;;22.60;3.17;;;;;;;1.07;95.41;100473.50;4997189;28;20054;-76
2021/01/14 05:24:13;;;;;;;14.52;2.95;;;;;;;1.08;95.06;100477.84;4997992;28;20062;-77
2021/01/14 05:26:44;;;;;;;16.17;3.33;;;;;;;1.04;95.52;100476.19;4996508;28;20058;-77
2021/01/14 05:29:15;;;;;;;7.78;1.70;;;;;;;0.87;96.16;100456.28;4995959;28;20086;-77
2021/01/14 05:31:42;;;;;;;20.75;2.70;;;;;;;1.00;95.75;100474.50;4996923;28;20519;-77
2021/01/14 05:34:08;;;;;;;7.35;2.42;;;;;;;0.81;95.54;100446.75;4996496;28;20054;-77
2021/01/14 05:36:51;;;;;;;14.35;2.92;;;;;;;0.97;95.81;100470.16;4996459;28;20051;-77
2021/01/14 05:39:22;;;;;;;19.80;3.40;;;;;;;1.00;95.32;100483.25;4996565;28;20054;-77
2021/01/14 05:41:48;;;;;;;25.60;3.00;;;;;;;0.99;96.26;100488.53;4996647;28;20054;-77
2021/01/14 05:44:15;;;;;;;20.23;2.95;;;;;;;0.97;96.45;100490.31;4996163;28;20339;-77
2021/01/14 05:46:42;;;;;;;18.20;2.97;;;;;;;0.94;96.03;100486.81;4996002;28;20069;-77
2021/01/14 05:49:10;;;;;;;12.02;2.67;;;;;;;0.94;95.59;100483.34;5011658;28;20050;-77
2021/01/14 05:51:37;;;;;;;16.73;3.30;;;;;;;0.97;95.37;100487.69;5027841;28;20419;-77
2021/01/14 05:54:12;;;;;;;19.73;3.30;;;;;;;1.01;95.26;100485.00;5027798;28;20054;-77
2021/01/14 05:56:43;;;;;;;25.48;3.35;;;;;;;0.97;95.22;100490.31;4996101;28;20081;-77
2021/01/14 05:59:12;;;;;;;21.38;3.55;;;;;;;0.96;94.79;100493.84;4996388;28;20050;-77
2021/01/14 06:01:52;;;;;;;20.75;3.17;;;;;;;0.97;94.92;100493.81;4988770;28;20047;-77
2021/01/14 06:04:23;;;;;;;20.53;3.40;;;;;;;1.05;94.86;100507.69;4976723;28;20054;-77
2021/01/14 06:06:51;;;;;;;13.95;2.75;;;;;;;0.98;94.14;100503.41;4991956;28;20043;-77
2021/01/14 06:09:22;;;;;;;19.65;2.90;;;;;;;0.94;95.66;100510.47;4976382;28;20496;-77
2021/01/14 06:11:50;;;;;;;15.23;2.90;;;;;;;0.97;95.75;100516.59;5008332;28;20059;-77
2021/01/14 06:14:26;;;;;;;17.88;4.70;;;;;;;0.95;95.72;100519.25;4976621;28;20124;-77
2021/01/14 06:16:53;;;;;;;17.42;2.75;;;;;;;0.94;95.70;100521.00;4976575;28;20125;-77
2021/01/14 06:19:24;;;;;;;13.98;2.97;;;;;;;0.89;96.12;100517.59;4976574;28;20061;-77
2021/01/14 06:21:55;;;;;;;18.10;3.28;;;;;;;0.83;96.38;100509.81;4976465;28;20055;-77
2021/01/14 06:24:26;;;;;;;16.88;2.83;;;;;;;0.87;96.36;100518.50;4976673;28;20062;-78
2021/01/14 06:26:54;;;;;;;14.50;2.88;;;;;;;0.89;96.19;100530.72;4976161;28;20062;-78
2021/01/14 06:29:22;;;;;;;20.13;2.58;;;;;;;0.76;96.48;100497.66;4976493;28;20058;-77
2021/01/14 06:31:49;;;;;;;13.07;2.40;;;;;;;0.83;96.70;100511.53;4976307;28;20094;-77
2021/01/14 06:34:19;;;;;;;15.48;2.33;;;;;;;0.90;96.36;100526.31;4976380;28;20126;-77
2021/01/14 06:36:47;;;;;;;16.02;3.03;;;;;;;0.90;96.31;100529.84;4976256;28;20055;-77
2021/01/14 06:39:16;;;;;;;17.48;2.85;;;;;;;0.94;96.04;100528.88;4976433;28;20058;-77
2021/01/14 06:41:43;;;;;;;18.63;3.00;;;;;;;0.89;96.31;100521.97;4979751;28;20382;-77
2021/01/14 06:44:12;;;;;;;14.00;3.30;;;;;;;0.79;96.77;100513.34;5011360;28;20109;-77
2021/01/14 06:46:40;;;;;;;14.60;3.38;;;;;;;0.90;96.41;100536.84;5011528;28;20089;-78
2021/01/14 06:49:13;;;;;;;14.25;2.97;;;;;;;0.80;96.58;100518.59;5011504;28;20054;-78
2021/01/14 06:51:46;;;;;;;11.02;2.47;;;;;;;0.90;96.47;100535.09;4988773;28;20054;-78
2021/01/14 06:54:14;;;;;;;13.23;3.17;;;;;;;0.90;96.67;100535.09;4999620;28;20062;-78
2021/01/14 06:57:13;;;;;;;12.32;3.00;;;;;;;0.97;96.29;100532.38;5031228;28;20318;-79
2021/01/14 06:59:39;;;;;;;13.43;2.58;;;;;;;1.02;95.54;100531.41;4998086;28;20075;-78
2021/01/14 07:02:05;;;;;;;18.88;2.90;;;;;;;0.98;96.28;100518.34;4997175;28;20433;-78
2021/01/14 07:04:36;;;;;;;9.68;3.13;;;;;;;0.99;95.99;100522.69;4999865;28;20052;-81
2021/01/14 07:07:26;;;;;;;12.90;3.05;;;;;;;0.93;96.88;100511.38;4993948;28;20440;-78
2021/01/14 07:10:11;;;;;;;5.47;2.80;;;;;;;0.96;96.45;100520.97;4995964;28;20112;-78
2021/01/14 07:12:40;;;;;;;12.82;3.10;;;;;;;0.96;96.14;100520.97;4997358;28;20081;-78
2021/01/14 07:15:12;;;;;;;9.70;2.92;;;;;;;0.88;96.54;100509.72;4998374;28;20104;-78
2021/01/14 07:17:40;;;;;;;10.80;2.70;;;;;;;0.85;96.50;100505.38;4999178;28;20046;-78
2021/01/14 07:20:10;;;;;;;8.80;3.00;;;;;;;0.94;96.01;100513.13;5000399;28;20101;-82
2021/01/14 07:22:59;;;;;;;8.45;3.10;;;;;;;0.97;96.08;100517.47;4998895;28;20077;-78
2021/01/14 07:25:26;;;;;;;12.45;3.30;;;;;;;0.92;95.81;100509.66;4997632;28;20050;-75
2021/01/14 07:27:53;;;;;;;8.93;3.08;;;;;;;1.00;96.09;100516.53;5017554;28;20054;-75
2021/01/14 07:30:20;;;;;;;7.75;3.28;;;;;;;0.88;96.21;100496.59;4995380;28;20047;-77
2021/01/14 07:33:08;;;;;;;15.90;3.60;;;;;;;1.00;95.23;100520.06;4996382;28;20050;-76
2021/01/14 07:35:38;;;;;;;13.48;3.10;;;;;;;1.05;94.62;100523.47;4996327;28;20046;-76
2021/01/14 07:38:04;;;;;;;7.25;3.20;;;;;;;1.00;95.07;100512.16;4996692;28;20086;-81
2021/01/14 07:40:32;;;;;;;18.73;4.03;;;;;;;1.04;94.65;100523.50;4998900;28;20061;-77
2021/01/14 07:43:00;;;;;;;11.95;2.78;;;;;;;1.01;94.53;100524.41;4999363;28;20392;-80
2021/01/14 07:45:31;;;;;;;15.52;3.25;;;;;;;1.08;94.62;100540.94;4998769;28;20056;-79
2021/01/14 07:48:26;;;;;;;8.13;2.63;;;;;;;1.07;94.00;100536.59;4999827;28;20396;-78
2021/01/14 07:50:57;;;;;;;17.30;4.18;;;;;;;1.08;93.90;100543.56;4998746;28;20061;-76
2021/01/14 07:53:27;;;;;;;14.35;3.17;;;;;;;1.09;93.94;100547.94;5000452;28;20134;-76
2021/01/14 07:55:53;;;;;;;11.75;2.95;;;;;;;1.06;94.25;100540.09;4999397;28;20441;-75
2021/01/14 07:58:24;;;;;;;11.73;2.60;;;;;;;1.04;94.10;100552.41;5007073;28;20050;-76
2021/01/14 08:01:10;;;;;;;14.50;3.67;;;;;;;1.05;93.81;100556.78;5002569;28;20109;-76
2021/01/14 08:03:43;;;;;;;8.07;2.60;;;;;;;1.07;94.01;100560.25;5000574;28;20455;-76
2021/01/14 08:06:35;;;;;;;10.40;2.60;;;;;;;1.07;94.00;100560.25;4998640;28;20046;-76
2021/01/14 08:09:02;;;;;;;13.10;3.15;;;;;;;1.07;92.60;100555.88;4998574;28;20361;-74
2021/01/14 08:11:55;;;;;;;15.77;3.15;;;;;;;1.01;93.33;100541.94;4997968;28;20050;-73
2021/01/14 08:14:34;;;;;;;15.90;2.78;;;;;;;1.10;93.67;100539.19;5013031;28;20461;-74
2021/01/14 08:17:01;;;;;;;14.15;2.70;;;;;;;1.03;92.96;100548.06;5029700;28;20386;-77
2021/01/14 08:19:34;;;;;;;13.43;3.70;;;;;;;1.10;93.28;100554.97;4997729;28;20050;-73
2021/01/14 08:22:05;;;;;;;11.85;3.00;;;;;;;1.06;93.34;100554.13;4998728;28;20050;-75
2021/01/14 08:24:41;;;;;;;12.48;2.83;;;;;;;1.10;92.21;100543.56;4997701;28;20120;-75
2021/01/14 08:27:13;;;;;;;16.45;2.90;;;;;;;1.14;91.76;100545.25;4995292;28;20050;-74
2021/01/14 08:29:50;;;;;;;12.85;3.20;;;;;;;0.95;92.40;100521.88;4990686;28;20050;-74
2021/01/14 08:32:33;;;;;;;23.98;3.75;;;;;;;1.10;91.31;100564.59;4993054;28;20058;-75
2021/01/14 08:35:31;;;;;;;14.30;3.20;;;;;;;1.12;92.17;100563.69;4995298;28;20046;-76
2021/01/14 08:38:02;;;;;;;14.45;2.88;;;;;;;1.14;92.31;100569.78;4996419;28;20050;-75
2021/01/14 08:40:33;;;;;;;18.57;3.63;;;;;;;1.09;91.19;100571.59;4996660;28;20057;-75
2021/01/14 08:43:14;;;;;;;9.52;3.35;;;;;;;1.12;90.97;100589.97;4996351;28;20149;-79
2021/01/14 08:45:46;;;;;;;7.45;3.17;;;;;;;1.09;91.96;100582.13;4997328;28;20047;-76
2021/01/14 08:48:18;;;;;;;13.30;2.75;;;;;;;1.09;92.67;100587.38;4996354;28;20356;-74
2021/01/14 08:50:47;;;;;;;15.82;3.20;;;;;;;1.08;91.54;100589.16;4997200;28;20432;-73
2021/01/14 08:53:19;;;;;;;13.70;2.95;;;;;;;1.14;91.35;100597.84;4996526;28;20054;-74
2021/01/14 08:56:02;;;;;;;17.38;3.25;;;;;;;1.09;91.21;100605.78;4997516;28;20050;-76
2021/01/14 08:58:34;;;;;;;7.45;2.97;;;;;;;1.13;91.42;100606.63;4996522;28;20097;-75
2021/01/14 09:01:02;;;;;;;9.70;2.60;;;;;;;1.12;91.51;100608.38;4994809;28;20050;-75
2021/01/14 09:03:28;;;;;;;7.13;2.60;;;;;;;1.18;90.35;100613.53;4990738;28;20043;-74
2021/01/14 09:05:55;;;;;;;13.60;3.05;;;;;;;1.20;90.35;100608.28;5004760;28;20046;-75
2021/01/14 09:08:21;;;;;;;8.73;3.25;;;;;;;1.27;91.03;100609.03;4995802;28;20066;-76
2021/01/14 09:10:53;;;;;;;14.80;3.25;;;;;;;1.25;90.29;100611.69;4995390;28;20052;-75
2021/01/14 09:13:21;;;;;;;15.93;3.05;;;;;;;1.30;89.73;100609.00;4994740;28;20129;-76
2021/01/14 09:15:49;;;;;;;8.27;2.95;;;;;;;1.23;90.03;100592.44;4990597;28;20042;-75
2021/01/14 09:18:17;;;;;;;11.25;4.00;;;;;;;1.36;88.64;100614.13;4996064;28;20084;-74
2021/01/14 09:20:53;;;;;;;13.18;2.60;;;;;;;1.32;90.14;100618.56;5027309;28;20058;-75
2021/01/14 09:23:32;;;;;;;13.88;3.38;;;;;;;1.28;89.65;100614.28;4995002;28;20049;-76
2021/01/14 09:26:09;;;;;;;13.65;3.03;;;;;;;1.39;90.30;100613.22;4993717;28;20054;-74
2021/01/14 09:28:35;;;;;;;18.75;4.22;;;;;;;1.35;90.13;100626.44;4994940;28;20081;-74
2021/01/14 09:31:05;;;;;;;15.27;3.38;;;;;;;1.36;90.22;100619.41;4995955;28;20498;-79
2021/01/14 09:33:34;;;;;;;14.60;3.10;;;;;;;1.34;89.78;100622.06;4996077;28;20064;-76
2021/01/14 09:36:23;;;;;;;16.55;3.85;;;;;;;1.32;89.29;100615.09;4995747;28;20101;-76
2021/01/14 09:38:52;;;;;;;11.75;3.45;;;;;;;1.30;89.21;100614.25;4995510;28;20049;-75
2021/01/14 09:41:29;;;;;;;15.00;2.63;;;;;;;1.42;89.76;100624.56;4995330;28;20132;-75
2021/01/14 09:44:04;;;;;;;14.05;3.22;;;;;;;1.44;89.43;100625.44;4995398;28;20129;-76
2021/01/14 09:46:35;;;;;;;16.05;3.40;;;;;;;1.45;87.74;100624.53;4996350;28;20046;-76
2021/01/14 09:49:11;;;;;;;12.88;4.13;;;;;;;1.33;88.83;100611.56;4996316;28;20054;-77
2021/01/14 09:51:41;;;;;;;9.13;2.90;;;;;;;1.42;87.78;100631.59;4995583;28;20057;-78
2021/01/14 09:54:09;;;;;;;11.00;3.70;;;;;;;1.42;90.02;100629.84;4996021;28;20076;-76
2021/01/14 09:56:47;;;;;;;20.20;3.20;;;;;;;1.38;90.09;100606.22;4998171;28;20046;-75
2021/01/14 09:59:16;;;;;;;11.23;2.65;;;;;;;1.45;88.58;100626.28;4995668;28;20058;-77
2021/01/14 10:01:49;;;;;;;12.65;3.55;;;;;;;1.55;87.92;100620.00;4988739;28;20055;-75
2021/01/14 10:04:18;;;;;;;14.18;3.40;;;;;;;1.53;88.59;100618.28;5021918;28;20046;-75
2021/01/14 10:06:51;;;;;;;11.13;3.35;;;;;;;1.54;88.66;100622.66;5016441;28;20101;-76
2021/01/14 10:09:18;;;;;;;12.57;3.10;;;;;;;1.47;88.73;100604.31;4995834;28;20057;-76
2021/01/14 10:11:45;;;;;;;11.02;2.85;;;;;;;1.58;86.16;100614.66;4995420;28;20054;-77
2021/01/14 10:14:19;;;;;;;15.90;3.15;;;;;;;1.56;85.56;100610.31;4995088;28;20439;-75
2021/01/14 10:16:45;;;;;;;15.82;3.63;;;;;;;1.49;87.04;100618.31;4995326;28;20389;-75
2021/01/14 10:19:15;;;;;;;18.15;3.55;;;;;;;1.53;85.67;100613.03;4995397;28;20125;-76
2021/01/14 10:21:42;;;;;;;18.63;2.90;;;;;;;1.41;86.14;100607.06;5026989;28;20050;-77
2021/01/14 10:24:26;;;;;;;20.52;4.60;;;;;;;1.46;86.67;100617.50;4995810;28;20061;-78
2021/01/14 10:26:54;;;;;;;10.95;2.90;;;;;;;1.50;86.05;100600.78;4995088;28;20388;-78
2021/01/14 10:29:38;;;;;;;12.52;3.53;;;;;;;1.51;87.46;100602.50;4995769;28;20417;-76
2021/01/14 10:32:13;;;;;;;13.48;3.08;;;;;;;1.58;84.54;100598.03;4995556;28;20137;-76
2021/01/14 10:34:50;;;;;;;12.82;2.95;;;;;;;1.48;86.65;100592.06;4991605;28;20049;-75
2021/01/14 10:37:25;;;;;;;13.02;2.80;;;;;;;1.39;85.16;100572.03;4994497;28;20046;-75
2021/01/14 10:39:54;;;;;;;18.95;3.38;;;;;;;1.48;86.05;100589.44;4995547;28;20054;-74
2021/01/14 10:42:30;;;;;;;18.33;3.90;;;;;;;1.55;86.68;100583.16;4993282;28;20050;-75
2021/01/14 10:44:59;;;;;;;10.80;3.65;;;;;;;1.54;84.44;100572.66;4995199;28;20057;-81
2021/01/14 10:47:26;;;;;;;15.25;2.65;;;;;;;1.53;83.40;100582.31;4995045;28;20124;-77
2021/01/14 10:49:52;;;;;;;13.02;2.30;;;;;;;1.53;83.02;100578.81;4995952;28;20387;-75
2021/01/14 10:52:20;;;;;;;14.50;2.70;;;;;;;1.49;84.09;100572.75;4995545;28;20053;-78
2021/01/14 10:55:00;;;;;;;11.98;2.75;;;;;;;1.51;83.26;100570.09;5026294;28;20050;-78
2021/01/14 10:57:51;;;;;;;10.63;2.50;;;;;;;1.60;84.46;100583.09;4976547;28;20397;-80
2021/01/14 11:00:23;;;;;;;16.98;3.50;;;;;;;1.55;84.33;100584.91;4976689;28;20066;-75
2021/01/14 11:03:00;;;;;;;11.18;2.42;;;;;;;1.63;84.65;100576.00;4992240;28;20113;-74
2021/01/14 11:05:39;;;;;;;11.75;2.92;;;;;;;1.70;84.66;100573.28;5027170;28;20116;-74
2021/01/14 11:08:10;;;;;;;15.98;2.50;;;;;;;1.59;83.68;100570.81;4994017;28;20455;-77
2021/01/14 11:10:36;;;;;;;12.95;2.30;;;;;;;1.67;83.97;100571.56;4995016;28;20051;-75
2021/01/14 11:13:14;;;;;;;12.07;3.63;;;;;;;1.69;82.58;100576.81;5026161;28;20050;-75
2021/01/14 11:15:41;;;;;;;16.90;2.95;;;;;;;1.69;84.23;100569.75;4994271;28;20606;-74
2021/01/14 11:18:08;;;;;;;11.65;2.83;;;;;;;1.80;83.32;100568.72;4994810;28;20082;-77
2021/01/14 11:20:38;;;;;;;8.88;2.38;;;;;;;1.72;84.73;100563.56;4994419;28;20046;-77
2021/01/14 11:23:05;;;;;;;9.65;3.28;;;;;;;1.69;83.35;100561.88;4994114;28;20380;-74
2021/01/14 11:25:31;;;;;;;12.32;2.90;;;;;;;1.78;83.98;100563.47;5010516;28;20066;-74
2021/01/14 11:27:58;;;;;;;10.57;2.53;;;;;;;1.74;83.34;100573.19;4996979;28;20058;-74
2021/01/14 11:30:25;;;;;;;13.18;3.35;;;;;;;1.71;84.26;100570.63;4998559;28;20061;-75
2021/01/14 11:32:51;;;;;;;12.07;3.10;;;;;;;1.91;83.37;100569.41;4997349;28;20356;-74
2021/01/14 11:35:18;;;;;;;14.60;2.92;;;;;;;1.83;81.24;100560.75;5030713;28;20313;-76
2021/01/14 11:37:44;;;;;;;20.35;2.90;;;;;;;1.79;81.06;100561.72;4998098;28;20042;-78
2021/01/14 11:40:11;;;;;;;10.93;2.90;;;;;;;1.84;81.10;100567.75;4998276;28;20050;-73